Time;durP1;ratioP1;P1;durP2;ratioP2;P2;SDS_P1;SDS_P2;PMS_P1;PMS_P2;Temp;Humidity;BMP_temperature;BMP_pressure;BME280_temperature;BME280_humidity;BME280_pressure;Samples;Min_cycle;Max_cycle;Signal;HPM_P1;HPM_P2
2023/08/22 00:02:36;;;;;;;18.80;14.07;;;;;;;;;;6248972;28;20045;-61
2023/08/22 00:05:37;;;;;;;19.33;13.10;;;;;;;;;;6246388;28;20485;-61
2023/08/22 00:08:38;;;;;;;18.67;14.23;;;;;;;;;;6249136;28;20083;-61
2023/08/22 00:11:38;;;;;;;18.00;13.77;;;;;;;;;;6248356;28;20045;-62
2023/08/22 00:14:39;;;;;;;18.03;13.90;;;;;;;;;;6246670;28;21163;-61
2023/08/22 00:17:40;;;;;;;17.40;13.67;;;;;;;;;;6247461;28;21076;-62
2023/08/22 00:20:41;;;;;;;19.27;14.13;;;;;;;;;;6246454;28;20045;-62
2023/08/22 00:23:41;;;;;;;17.63;13.53;;;;;;;;;;6245631;28;20183;-62
2023/08/22 00:26:42;;;;;;;21.37;14.57;;;;;;;;;;6247519;28;20049;-62
2023/08/22 00:29:42;;;;;;;17.90;13.80;;;;;;;;;;6248851;28;20049;-61
2023/08/22 00:32:43;;;;;;;16.63;12.97;;;;;;;;;;6250887;28;20056;-61
2023/08/22 00:35:43;;;;;;;17.40;13.67;;;;;;;;;;6246484;28;20164;-61
2023/08/22 00:38:44;;;;;;;19.77;13.57;;;;;;;;;;6248395;28;20052;-61
2023/08/22 00:41:45;;;;;;;18.53;14.00;;;;;;;;;;6248251;28;20571;-61
2023/08/22 00:44:45;;;;;;;17.97;14.37;;;;;;;;;;6246669;28;20053;-62
2023/08/22 00:47:46;;;;;;;18.20;14.33;;;;;;;;;;6246857;28;20587;-63
2023/08/22 00:50:47;;;;;;;22.30;14.53;;;;;;;;;;6246920;28;20549;-61
2023/08/22 00:53:48;;;;;;;18.17;14.37;;;;;;;;;;6247536;28;20052;-62
2023/08/22 00:56:49;;;;;;;19.73;14.93;;;;;;;;;;6250006;28;20049;-61
2023/08/22 00:59:51;;;;;;;18.17;13.45;;;;;;;;;;6246255;28;20049;-61
2023/08/22 01:02:52;;;;;;;17.15;13.82;;;;;;;;;;6244465;28;20057;-61
2023/08/22 01:06:00;;;;;;;17.17;13.48;;;;;;;;;;6247139;28;20076;-61
2023/08/22 01:09:05;;;;;;;20.80;13.80;;;;;;;;;;6245716;28;20060;-61
2023/08/22 01:12:33;;;;;;;18.38;14.00;;;;;;;;;;6244702;28;20431;-61
2023/08/22 01:15:35;;;;;;;16.73;13.15;;;;;;;;;;6245844;28;20514;-61
2023/08/22 01:18:39;;;;;;;18.13;13.13;;;;;;;;;;6251881;28;20143;-60
2023/08/22 01:22:05;;;;;;;19.98;13.90;;;;;;;;;;6253254;28;20048;-62
2023/08/22 01:25:08;;;;;;;19.27;14.30;;;;;;;;;;6248036;28;20056;-61
2023/08/22 01:28:22;;;;;;;17.90;13.70;;;;;;;;;;6250391;28;20659;-61
2023/08/22 01:31:36;;;;;;;18.85;14.57;;;;;;;;;;6252026;28;20049;-60
2023/08/22 01:34:38;;;;;;;20.60;15.70;;;;;;;;;;6250938;28;20076;-61
2023/08/22 01:37:41;;;;;;;20.70;15.35;;;;;;;;;;6252392;28;22337;-61
2023/08/22 01:40:41;;;;;;;20.23;16.20;;;;;;;;;;6250485;28;20114;-62
2023/08/22 01:43:43;;;;;;;22.77;15.50;;;;;;;;;;6248725;28;20061;-61
2023/08/22 01:46:43;;;;;;;19.27;15.50;;;;;;;;;;6250732;28;20052;-61
2023/08/22 01:49:44;;;;;;;20.20;14.77;;;;;;;;;;6252334;28;20049;-62
2023/08/22 01:52:45;;;;;;;21.30;14.83;;;;;;;;;;6261523;28;20630;-61
2023/08/22 01:55:45;;;;;;;20.10;14.97;;;;;;;;;;6266162;28;20508;-61
2023/08/22 01:58:46;;;;;;;18.73;14.57;;;;;;;;;;6263710;28;20452;-61
2023/08/22 02:01:47;;;;;;;17.70;13.50;;;;;;;;;;6265204;28;20118;-62
2023/08/22 02:04:47;;;;;;;17.60;13.57;;;;;;;;;;6262105;28;20434;-62
2023/08/22 02:07:48;;;;;;;21.50;15.00;;;;;;;;;;6265568;28;20818;-61
2023/08/22 02:10:48;;;;;;;18.00;14.40;;;;;;;;;;6259413;28;20389;-61
2023/08/22 02:13:49;;;;;;;19.93;14.27;;;;;;;;;;6264905;28;20491;-62
2023/08/22 02:16:49;;;;;;;19.17;14.80;;;;;;;;;;6264081;28;20424;-61
2023/08/22 02:19:50;;;;;;;19.10;13.67;;;;;;;;;;6266313;28;20147;-62
2023/08/22 02:22:50;;;;;;;20.10;15.03;;;;;;;;;;6265557;28;20044;-61
2023/08/22 02:25:51;;;;;;;19.10;15.30;;;;;;;;;;6266240;28;20045;-62
2023/08/22 02:28:53;;;;;;;18.97;13.93;;;;;;;;;;6264638;28;20090;-61
2023/08/22 02:31:53;;;;;;;;;;;;;;;;;;6266219;28;20045;-61
2023/08/22 02:34:54;;;;;;;19.00;15.13;;;;;;;;;;6264171;28;20394;-61
2023/08/22 02:37:54;;;;;;;17.50;14.47;;;;;;;;;;6264014;28;20076;-62
2023/08/22 02:40:55;;;;;;;21.43;16.10;;;;;;;;;;6263296;28;20557;-60
2023/08/22 02:43:56;;;;;;;21.40;15.53;;;;;;;;;;6265101;28;20055;-62
2023/08/22 02:46:56;;;;;;;19.90;16.13;;;;;;;;;;6263948;28;20052;-63
2023/08/22 02:50:00;;;;;;;18.43;14.80;;;;;;;;;;6266539;28;20045;-61
2023/08/22 02:53:00;;;;;;;19.08;15.30;;;;;;;;;;6264215;28;20045;-62
2023/08/22 02:56:01;;;;;;;22.97;16.40;;;;;;;;;;6265738;28;20051;-61
2023/08/22 02:59:03;;;;;;;20.58;16.00;;;;;;;;;;6261864;28;20492;-61
2023/08/22 03:02:04;;;;;;;22.23;14.93;;;;;;;;;;6263027;28;20116;-63
2023/08/22 03:05:07;;;;;;;18.53;15.17;;;;;;;;;;6263399;28;20762;-62
2023/08/22 03:08:08;;;;;;;18.73;15.10;;;;;;;;;;6263791;28;20048;-62
2023/08/22 03:11:08;;;;;;;21.23;15.77;;;;;;;;;;6260847;28;20151;-61
2023/08/22 03:14:09;;;;;;;19.07;14.43;;;;;;;;;;6263499;28;20053;-61
2023/08/22 03:17:10;;;;;;;19.93;15.27;;;;;;;;;;6261217;28;20045;-63
2023/08/22 03:20:11;;;;;;;21.13;15.37;;;;;;;;;;6266015;28;20052;-62
2023/08/22 03:23:14;;;;;;;19.77;14.53;;;;;;;;;;6261069;28;20297;-63
2023/08/22 03:26:14;;;;;;;22.73;16.25;;;;;;;;;;6263787;28;20301;-62
2023/08/22 03:29:15;;;;;;;19.93;16.07;;;;;;;;;;6263296;28;20052;-62
2023/08/22 03:32:16;;;;;;;21.40;16.37;;;;;;;;;;6263919;28;20590;-61
2023/08/22 03:35:16;;;;;;;19.53;15.17;;;;;;;;;;6260857;28;20052;-62
2023/08/22 03:38:17;;;;;;;18.20;14.87;;;;;;;;;;6262908;28;20869;-61
2023/08/22 03:41:18;;;;;;;20.63;15.53;;;;;;;;;;6262047;28;20052;-60
2023/08/22 03:44:19;;;;;;;22.00;15.68;;;;;;;;;;6264502;28;20097;-61
2023/08/22 03:47:19;;;;;;;21.43;16.20;;;;;;;;;;6262701;28;20614;-61
2023/08/22 03:50:20;;;;;;;20.43;15.60;;;;;;;;;;6264333;28;20085;-60
2023/08/22 03:53:21;;;;;;;21.20;16.20;;;;;;;;;;6260151;28;20048;-60
2023/08/22 03:56:22;;;;;;;23.63;18.17;;;;;;;;;;6260844;28;20048;-61
2023/08/22 03:59:23;;;;;;;27.60;18.20;;;;;;;;;;6263552;28;20423;-60
2023/08/22 04:02:23;;;;;;;23.10;15.93;;;;;;;;;;6261445;28;20137;-61
2023/08/22 04:05:24;;;;;;;21.30;15.53;;;;;;;;;;6253322;28;20355;-61
2023/08/22 04:08:25;;;;;;;23.45;16.70;;;;;;;;;;6260985;28;20048;-61
2023/08/22 04:11:26;;;;;;;25.57;16.87;;;;;;;;;;6257642;28;20044;-61
2023/08/22 04:14:26;;;;;;;24.80;17.03;;;;;;;;;;6259333;28;20045;-61
2023/08/22 04:17:27;;;;;;;28.30;17.93;;;;;;;;;;6263124;28;20049;-61
2023/08/22 04:20:28;;;;;;;26.07;17.17;;;;;;;;;;6262833;28;20072;-60
2023/08/22 04:23:28;;;;;;;23.73;15.30;;;;;;;;;;6259247;28;20052;-61
2023/08/22 04:26:29;;;;;;;22.60;15.83;;;;;;;;;;6258169;28;20087;-61
2023/08/22 04:29:29;;;;;;;22.93;15.73;;;;;;;;;;6260855;28;20057;-62
2023/08/22 04:32:31;;;;;;;22.87;15.97;;;;;;;;;;6260815;28;20075;-62
2023/08/22 04:35:31;;;;;;;24.75;15.43;;;;;;;;;;6260032;28;20041;-62
2023/08/22 04:38:32;;;;;;;19.83;14.27;;;;;;;;;;6265332;28;20455;-61
2023/08/22 04:41:33;;;;;;;23.00;15.63;;;;;;;;;;6262466;28;20049;-61
2023/08/22 04:44:33;;;;;;;27.57;16.20;;;;;;;;;;6262345;28;20045;-61
2023/08/22 04:47:34;;;;;;;20.97;15.60;;;;;;;;;;6258680;28;20037;-61
2023/08/22 04:50:35;;;;;;;22.17;16.23;;;;;;;;;;6262629;28;20123;-62
2023/08/22 04:53:35;;;;;;;22.10;15.52;;;;;;;;;;6266454;28;20037;-61
2023/08/22 04:56:36;;;;;;;23.97;16.47;;;;;;;;;;6268976;28;20048;-62
2023/08/22 04:59:37;;;;;;;23.23;15.70;;;;;;;;;;6267586;28;20095;-60
2023/08/22 05:02:37;;;;;;;23.80;16.77;;;;;;;;;;6266848;28;20045;-60
2023/08/22 05:05:38;;;;;;;23.67;16.87;;;;;;;;;;6268769;28;20049;-62
2023/08/22 05:08:39;;;;;;;24.53;16.73;;;;;;;;;;6267063;28;20172;-61
2023/08/22 05:11:40;;;;;;;23.40;16.80;;;;;;;;;;6268899;28;20048;-62
2023/08/22 05:14:41;;;;;;;24.77;16.67;;;;;;;;;;6269788;28;20053;-62
2023/08/22 05:17:41;;;;;;;25.37;16.37;;;;;;;;;;6266597;28;20051;-62
2023/08/22 05:20:42;;;;;;;26.83;16.93;;;;;;;;;;6270033;28;20147;-61
2023/08/22 05:23:43;;;;;;;22.85;16.58;;;;;;;;;;6268136;28;20048;-62
2023/08/22 05:26:44;;;;;;;23.77;17.10;;;;;;;;;;6268269;28;20478;-62
2023/08/22 05:29:44;;;;;;;23.57;16.77;;;;;;;;;;6268547;28;20044;-62
2023/08/22 05:32:45;;;;;;;22.93;14.43;;;;;;;;;;6270152;28;20053;-62
2023/08/22 05:35:45;;;;;;;17.07;13.67;;;;;;;;;;6268298;28;20555;-61
2023/08/22 05:38:46;;;;;;;18.70;12.97;;;;;;;;;;6268218;28;20136;-62
2023/08/22 05:41:46;;;;;;;20.00;13.43;;;;;;;;;;6267388;28;20045;-61
2023/08/22 05:44:47;;;;;;;20.77;14.30;;;;;;;;;;6268370;28;20118;-62
2023/08/22 05:47:47;;;;;;;19.73;14.87;;;;;;;;;;6267630;28;20048;-61
2023/08/22 05:50:49;;;;;;;25.80;14.93;;;;;;;;;;6265181;28;20041;-62
2023/08/22 05:53:50;;;;;;;;;;;;;;;;;;6269510;28;20053;-62
2023/08/22 05:56:50;;;;;;;22.35;15.65;;;;;;;;;;6265462;28;19932;-62
2023/08/22 05:59:51;;;;;;;22.60;16.20;;;;;;;;;;6267886;28;20052;-61
2023/08/22 06:02:52;;;;;;;26.05;16.92;;;;;;;;;;6267162;28;20136;-62
2023/08/22 06:05:52;;;;;;;26.40;17.13;;;;;;;;;;6267324;28;20059;-62
2023/08/22 06:08:53;;;;;;;26.93;17.17;;;;;;;;;;6267336;28;20476;-62
2023/08/22 06:11:53;;;;;;;28.83;16.77;;;;;;;;;;6269161;28;20057;-62
2023/08/22 06:14:54;;;;;;;27.83;17.33;;;;;;;;;;6267067;28;20135;-62
2023/08/22 06:17:55;;;;;;;27.20;17.00;;;;;;;;;;6265802;28;20064;-62
2023/08/22 06:21:00;;;;;;;26.33;18.00;;;;;;;;;;6266941;28;20480;-62
2023/08/22 06:24:00;;;;;;;28.48;17.55;;;;;;;;;;6263061;28;20052;-62
2023/08/22 06:27:01;;;;;;;24.63;17.37;;;;;;;;;;6266005;28;20049;-62
2023/08/22 06:30:02;;;;;;;27.00;18.40;;;;;;;;;;6266983;28;20051;-62
2023/08/22 06:33:02;;;;;;;29.08;16.23;;;;;;;;;;6268550;28;20068;-61
2023/08/22 06:36:03;;;;;;;24.50;17.23;;;;;;;;;;6263449;28;20044;-62
2023/08/22 06:39:05;;;;;;;24.08;16.45;;;;;;;;;;6264804;28;20563;-62
2023/08/22 06:42:06;;;;;;;22.60;17.20;;;;;;;;;;6266328;28;20048;-63
2023/08/22 06:45:07;;;;;;;25.20;16.50;;;;;;;;;;6266704;28;20052;-62
2023/08/22 06:48:08;;;;;;;23.17;15.57;;;;;;;;;;6266031;28;20053;-62
2023/08/22 06:51:09;;;;;;;20.95;15.07;;;;;;;;;;6266481;28;20045;-62
2023/08/22 06:54:09;;;;;;;22.60;15.70;;;;;;;;;;6266157;28;20102;-62
2023/08/22 06:57:10;;;;;;;23.43;16.03;;;;;;;;;;6267343;28;20049;-62
2023/08/22 07:00:15;;;;;;;22.70;16.40;;;;;;;;;;6264586;28;20080;-62
2023/08/22 07:03:16;;;;;;;24.17;15.98;;;;;;;;;;6265419;28;20049;-62
2023/08/22 07:06:16;;;;;;;23.37;15.53;;;;;;;;;;6264784;28;20062;-63
2023/08/22 07:09:17;;;;;;;24.13;16.80;;;;;;;;;;6265901;28;20052;-63
2023/08/22 07:12:18;;;;;;;21.67;16.13;;;;;;;;;;6263815;28;20676;-62
2023/08/22 07:15:19;;;;;;;24.40;16.53;;;;;;;;;;6264742;28;20055;-62
2023/08/22 07:18:20;;;;;;;20.83;15.90;;;;;;;;;;6266874;28;20294;-62
2023/08/22 07:21:20;;;;;;;20.25;16.02;;;;;;;;;;6265637;28;20084;-62
2023/08/22 07:24:21;;;;;;;23.97;16.30;;;;;;;;;;6265403;28;20476;-61
2023/08/22 07:27:22;;;;;;;22.53;15.50;;;;;;;;;;6265654;28;20052;-62
2023/08/22 07:30:22;;;;;;;23.33;14.82;;;;;;;;;;6267091;28;20053;-62
2023/08/22 07:33:23;;;;;;;20.23;14.77;;;;;;;;;;6265255;28;20135;-62
2023/08/22 07:36:24;;;;;;;23.10;15.80;;;;;;;;;;6263265;28;20045;-62
2023/08/22 07:39:27;;;;;;;21.35;15.80;;;;;;;;;;6265846;28;20080;-62
2023/08/22 07:42:27;;;;;;;20.45;15.43;;;;;;;;;;6264054;28;20068;-62
2023/08/22 07:45:28;;;;;;;22.30;15.70;;;;;;;;;;6263947;28;20456;-63
2023/08/22 07:48:28;;;;;;;20.57;15.53;;;;;;;;;;6264722;28;20049;-62
2023/08/22 07:51:30;;;;;;;23.70;16.83;;;;;;;;;;6264031;28;20051;-63
2023/08/22 07:54:31;;;;;;;20.77;15.93;;;;;;;;;;6263456;28;20056;-62
2023/08/22 07:57:32;;;;;;;21.55;16.30;;;;;;;;;;6262930;28;20041;-61
2023/08/22 08:00:33;;;;;;;24.20;17.77;;;;;;;;;;6266463;28;20048;-62
2023/08/22 08:03:34;;;;;;;21.60;16.43;;;;;;;;;;6263138;28;20055;-63
2023/08/22 08:06:35;;;;;;;23.63;17.87;;;;;;;;;;6265868;28;20044;-63
2023/08/22 08:09:36;;;;;;;23.70;16.05;;;;;;;;;;6262687;28;20140;-62
2023/08/22 08:12:36;;;;;;;22.00;17.00;;;;;;;;;;6263868;28;20714;-63
2023/08/22 08:15:37;;;;;;;22.48;16.08;;;;;;;;;;6264282;28;20136;-62
2023/08/22 08:18:38;;;;;;;20.43;16.63;;;;;;;;;;6266307;28;20045;-62
2023/08/22 08:21:39;;;;;;;19.20;15.65;;;;;;;;;;6264516;28;20423;-62
2023/08/22 08:24:39;;;;;;;19.83;15.73;;;;;;;;;;6264615;28;20049;-63
2023/08/22 08:27:40;;;;;;;20.58;16.10;;;;;;;;;;6270185;28;20049;-62
2023/08/22 08:30:41;;;;;;;21.80;17.00;;;;;;;;;;6270472;28;20041;-63
2023/08/22 08:33:41;;;;;;;18.83;14.53;;;;;;;;;;6269214;28;20045;-64
2023/08/22 08:36:42;;;;;;;19.77;14.83;;;;;;;;;;6269388;28;20298;-63
2023/08/22 08:39:43;;;;;;;23.88;15.98;;;;;;;;;;6270082;28;20045;-63
2023/08/22 08:42:44;;;;;;;18.33;14.93;;;;;;;;;;6269573;28;20416;-63
2023/08/22 08:45:44;;;;;;;19.73;11.93;;;;;;;;;;6268642;28;20036;-63
2023/08/22 08:48:45;;;;;;;17.33;12.77;;;;;;;;;;6269032;28;20034;-62
2023/08/22 08:51:47;;;;;;;18.27;12.65;;;;;;;;;;6265943;28;20059;-63
2023/08/22 08:54:48;;;;;;;;;;;;;;;;;;6268389;28;20044;-63
2023/08/22 08:57:51;;;;;;;16.48;11.55;;;;;;;;;;6269414;28;20650;-62
2023/08/22 09:00:54;;;;;;;15.77;11.25;;;;;;;;;;6268739;28;20053;-63
2023/08/22 09:03:55;;;;;;;15.15;11.20;;;;;;;;;;6267249;28;20044;-63
2023/08/22 09:06:55;;;;;;;14.70;11.90;;;;;;;;;;6270036;28;20494;-63
2023/08/22 09:09:57;;;;;;;18.30;13.63;;;;;;;;;;6268524;28;20057;-62
2023/08/22 09:13:01;;;;;;;14.43;10.88;;;;;;;;;;6268219;28;20344;-63
2023/08/22 09:16:02;;;;;;;14.80;10.82;;;;;;;;;;6268160;28;20494;-62
2023/08/22 09:19:03;;;;;;;12.83;10.47;;;;;;;;;;6269816;28;20049;-61
2023/08/22 09:22:04;;;;;;;14.57;12.05;;;;;;;;;;6266869;28;20047;-62
2023/08/22 09:25:07;;;;;;;16.40;11.27;;;;;;;;;;6269785;28;20447;-62
2023/08/22 09:28:10;;;;;;;14.20;11.20;;;;;;;;;;6267967;28;20297;-64
2023/08/22 09:31:20;;;;;;;13.60;10.52;;;;;;;;;;6268363;28;20059;-63
2023/08/22 09:34:21;;;;;;;12.98;9.50;;;;;;;;;;6267709;28;20049;-63
2023/08/22 09:37:32;;;;;;;13.40;9.93;;;;;;;;;;6266842;28;20155;-63
2023/08/22 09:40:33;;;;;;;12.40;9.65;;;;;;;;;;6266816;28;20090;-63
2023/08/22 09:43:39;;;;;;;;;;;;;;;;;;6268593;28;20133;-63
2023/08/22 09:46:41;;;;;;;14.02;10.15;;;;;;;;;;6269456;28;20007;-63
2023/08/22 09:49:42;;;;;;;14.63;10.32;;;;;;;;;;6266407;28;20053;-62
2023/08/22 09:52:44;;;;;;;14.25;10.05;;;;;;;;;;6265152;28;20051;-63
2023/08/22 09:55:45;;;;;;;12.57;9.93;;;;;;;;;;6267679;28;20476;-63
2023/08/22 09:58:46;;;;;;;11.63;8.38;;;;;;;;;;6264670;28;20560;-63
2023/08/22 10:01:47;;;;;;;;;;;;;;;;;;6268201;28;20075;-62
2023/08/22 10:04:49;;;;;;;11.38;8.88;;;;;;;;;;6266438;28;19921;-64
2023/08/22 10:07:50;;;;;;;11.73;9.60;;;;;;;;;;6266023;28;20052;-63
2023/08/22 10:10:51;;;;;;;12.80;9.35;;;;;;;;;;6264974;28;20574;-63
2023/08/22 10:13:52;;;;;;;14.13;9.43;;;;;;;;;;6267856;28;20507;-63
2023/08/22 10:16:54;;;;;;;;;;;;;;;;;;6267723;28;20114;-62
2023/08/22 10:20:21;;;;;;;12.40;8.82;;;;;;;;;;6266698;28;19924;-63
2023/08/22 10:23:52;;;;;;;13.00;8.60;;;;;;;;;;6265980;28;20062;-63
2023/08/22 10:27:07;;;;;;;14.02;9.75;;;;;;;;;;6268719;28;20048;-63
2023/08/22 10:30:14;;;;;;;13.00;9.23;;;;;;;;;;6267065;28;20053;-63
2023/08/22 10:33:27;;;;;;;11.07;9.20;;;;;;;;;;6264895;28;20052;-63
2023/08/22 10:36:27;;;;;;;11.80;8.65;;;;;;;;;;6265502;28;20132;-63
2023/08/22 10:39:37;;;;;;;11.38;8.48;;;;;;;;;;6265480;28;20751;-64
2023/08/22 10:42:38;;;;;;;9.55;7.60;;;;;;;;;;6265476;28;20139;-64
2023/08/22 10:45:39;;;;;;;10.80;7.50;;;;;;;;;;6265986;28;20053;-63
2023/08/22 10:48:40;;;;;;;10.23;7.93;;;;;;;;;;6265653;28;20310;-63
2023/08/22 10:51:43;;;;;;;9.75;7.68;;;;;;;;;;6265861;28;20059;-63
2023/08/22 10:55:06;;;;;;;11.30;7.97;;;;;;;;;;6267604;28;20056;-63
2023/08/22 10:58:06;;;;;;;10.82;8.15;;;;;;;;;;6266462;28;20103;-62
2023/08/22 11:01:10;;;;;;;11.80;7.35;;;;;;;;;;6264715;28;20041;-63
2023/08/22 11:04:13;;;;;;;8.57;6.80;;;;;;;;;;6266851;28;20076;-63
2023/08/22 11:07:14;;;;;;;10.30;6.65;;;;;;;;;;6265499;28;20491;-63
2023/08/22 11:10:18;;;;;;;9.65;7.13;;;;;;;;;;6264793;28;20095;-62
2023/08/22 11:13:18;;;;;;;10.23;7.40;;;;;;;;;;6265229;28;20052;-63
2023/08/22 11:16:19;;;;;;;9.05;7.43;;;;;;;;;;6266689;28;20502;-63
2023/08/22 11:19:20;;;;;;;;;;;;;;;;;;6266409;28;20048;-62
2023/08/22 11:22:21;;;;;;;8.63;6.77;;;;;;;;;;6264087;28;19927;-62
2023/08/22 11:25:24;;;;;;;8.18;6.93;;;;;;;;;;6261304;28;20419;-63
2023/08/22 11:28:32;;;;;;;8.73;7.05;;;;;;;;;;6264016;28;20439;-62
2023/08/22 11:31:36;;;;;;;9.18;7.05;;;;;;;;;;6260967;28;20185;-64
2023/08/22 11:34:36;;;;;;;8.60;6.63;;;;;;;;;;6262573;28;20087;-64
2023/08/22 11:37:39;;;;;;;10.15;7.13;;;;;;;;;;6261493;28;20438;-63
2023/08/22 11:40:43;;;;;;;9.98;6.63;;;;;;;;;;6262479;28;20140;-63
2023/08/22 11:43:45;;;;;;;11.38;6.82;;;;;;;;;;6262147;28;20094;-64
2023/08/22 11:46:49;;;;;;;9.90;6.35;;;;;;;;;;6264484;28;20052;-63
2023/08/22 11:49:50;;;;;;;8.55;6.00;;;;;;;;;;6262887;28;20055;-63
2023/08/22 11:53:06;;;;;;;9.93;6.85;;;;;;;;;;6264877;28;20061;-63
2023/08/22 11:56:07;;;;;;;8.43;5.97;;;;;;;;;;6260390;28;20098;-64
2023/08/22 11:59:08;;;;;;;;;;;;;;;;;;6264557;28;20049;-63
2023/08/22 12:02:11;;;;;;;8.77;6.38;;;;;;;;;;6267634;28;19925;-63
2023/08/22 12:05:30;;;;;;;7.95;6.30;;;;;;;;;;6261222;28;20079;-63
2023/08/22 12:08:30;;;;;;;8.35;6.72;;;;;;;;;;6264047;28;20076;-63
2023/08/22 12:11:32;;;;;;;8.70;6.82;;;;;;;;;;6262844;28;20130;-63
2023/08/22 12:14:33;;;;;;;10.32;6.80;;;;;;;;;;6264657;28;20487;-63
2023/08/22 12:17:33;;;;;;;9.50;6.63;;;;;;;;;;6264583;28;20049;-65
2023/08/22 12:20:35;;;;;;;8.15;6.28;;;;;;;;;;6266140;28;20397;-63
2023/08/22 12:23:37;;;;;;;8.68;6.80;;;;;;;;;;6259501;28;20538;-62
2023/08/22 12:26:38;;;;;;;8.32;6.53;;;;;;;;;;6245414;28;20520;-63
2023/08/22 12:29:38;;;;;;;;;;;;;;;;;;6249748;28;20037;-62
2023/08/22 12:32:44;;;;;;;9.03;6.43;;;;;;;;;;6251082;28;19921;-64
2023/08/22 12:35:44;;;;;;;8.80;6.55;;;;;;;;;;6246598;28;20102;-64
2023/08/22 12:38:45;;;;;;;;;;;;;;;;;;6248603;28;20049;-64
2023/08/22 12:41:45;;;;;;;9.73;6.57;;;;;;;;;;6246282;28;20513;-62
2023/08/22 12:44:46;;;;;;;8.50;6.80;;;;;;;;;;6243618;28;20075;-63
2023/08/22 12:47:48;;;;;;;8.10;7.00;;;;;;;;;;6246621;28;20053;-64
2023/08/22 12:50:49;;;;;;;9.75;6.70;;;;;;;;;;6245777;28;20301;-64
2023/08/22 12:53:49;;;;;;;;;;;;;;;;;;6248616;28;20167;-63
2023/08/22 12:56:51;;;;;;;11.98;6.90;;;;;;;;;;6247200;28;20037;-63
2023/08/22 12:59:51;;;;;;;;;;;;;;;;;;6246729;28;20690;-64
2023/08/22 13:02:52;;;;;;;11.23;7.43;;;;;;;;;;6247333;28;19924;-64
2023/08/22 13:05:52;;;;;;;;;;;;;;;;;;6246104;28;20581;-63
2023/08/22 13:08:55;;;;;;;10.00;7.67;;;;;;;;;;6248140;28;19924;-64
2023/08/22 13:11:55;;;;;;;8.77;7.10;;;;;;;;;;6247225;28;20080;-63
2023/08/22 13:14:56;;;;;;;;;;;;;;;;;;6251277;28;20049;-64
2023/08/22 13:17:57;;;;;;;10.70;7.50;;;;;;;;;;6252072;28;19929;-62
2023/08/22 13:20:57;;;;;;;9.30;7.07;;;;;;;;;;6250828;28;20064;-63
2023/08/22 13:23:58;;;;;;;;;;;;;;;;;;6252360;28;20411;-62
2023/08/22 13:26:59;;;;;;;9.52;7.45;;;;;;;;;;6248756;28;19967;-63
2023/08/22 13:29:59;;;;;;;;;;;;;;;;;;6250526;28;20045;-62
2023/08/22 13:33:00;;;;;;;10.98;7.55;;;;;;;;;;6249724;28;19924;-62
2023/08/22 13:36:00;;;;;;;9.55;7.10;;;;;;;;;;6248636;28;20053;-62
2023/08/22 13:39:01;;;;;;;9.70;7.72;;;;;;;;;;6248563;28;20075;-64
2023/08/22 13:42:02;;;;;;;;;;;;;;;;;;6249630;28;20053;-64
2023/08/22 13:45:05;;;;;;;9.70;7.60;;;;;;;;;;6251365;28;20376;-64
2023/08/22 13:48:06;;;;;;;12.65;7.85;;;;;;;;;;6249996;28;20045;-63
2023/08/22 13:51:07;;;;;;;;;;;;;;;;;;6249756;28;20148;-63
2023/08/22 13:54:07;;;;;;;12.10;8.87;;;;;;;;;;6247243;28;19928;-62
2023/08/22 13:57:08;;;;;;;11.77;7.32;;;;;;;;;;6250563;28;20143;-64
2023/08/22 14:00:09;;;;;;;11.23;7.57;;;;;;;;;;6248312;28;20041;-63
2023/08/22 14:03:10;;;;;;;12.23;7.68;;;;;;;;;;6252541;28;20045;-63
2023/08/22 14:06:10;;;;;;;;;;;;;;;;;;6247622;28;20569;-63
2023/08/22 14:09:11;;;;;;;10.43;7.03;;;;;;;;;;6248840;28;19929;-64
2023/08/22 14:12:12;;;;;;;9.32;7.22;;;;;;;;;;6248679;28;20053;-64
2023/08/22 14:15:13;;;;;;;12.05;7.10;;;;;;;;;;6250191;28;20398;-64
2023/08/22 14:18:13;;;;;;;;;;;;;;;;;;6251368;28;20049;-61
2023/08/22 14:21:14;;;;;;;10.98;7.70;;;;;;;;;;6249945;28;20405;-63
2023/08/22 14:24:15;;;;;;;;;;;;;;;;;;6249765;28;20037;-63
2023/08/22 14:27:16;;;;;;;11.20;7.72;;;;;;;;;;6248683;28;19951;-63
2023/08/22 14:30:16;;;;;;;;;;;;;;;;;;6249898;28;20053;-63
2023/08/22 14:33:17;;;;;;;10.27;7.77;;;;;;;;;;6251472;28;19982;-63
2023/08/22 14:36:17;;;;;;;;;;;;;;;;;;6248056;28;20049;-63
2023/08/22 14:39:18;;;;;;;10.57;7.55;;;;;;;;;;6249326;28;19939;-63
2023/08/22 14:42:18;;;;;;;;;;;;;;;;;;6250963;28;20057;-63
2023/08/22 14:45:19;;;;;;;22.83;8.13;;;;;;;;;;6247738;28;19936;-63
2023/08/22 14:48:20;;;;;;;;;;;;;;;;;;6249140;28;20056;-63
2023/08/22 14:51:21;;;;;;;9.90;7.67;;;;;;;;;;6248068;28;19933;-63
2023/08/22 14:54:21;;;;;;;;;;;;;;;;;;6246678;28;20045;-63
2023/08/22 14:57:22;;;;;;;13.73;7.70;;;;;;;;;;6250052;28;20868;-63
2023/08/22 15:00:27;;;;;;;;;;;;;;;;;;6249437;28;20044;-63
2023/08/22 15:03:28;;;;;;;10.27;7.97;;;;;;;;;;6247356;28;20486;-63
2023/08/22 15:06:29;;;;;;;11.85;8.10;;;;;;;;;;6249498;28;20059;-64
2023/08/22 15:09:29;;;;;;;;;;;;;;;;;;6244493;28;20067;-63
2023/08/22 15:12:30;;;;;;;10.20;8.07;;;;;;;;;;6250235;28;20450;-63
2023/08/22 15:15:30;;;;;;;;;;;;;;;;;;6248381;28;20404;-63
2023/08/22 15:18:31;;;;;;;10.47;8.10;;;;;;;;;;6256832;28;20386;-64
2023/08/22 15:21:32;;;;;;;;;;;;;;;;;;6257499;28;20120;-64
2023/08/22 15:24:32;;;;;;;11.03;7.80;;;;;;;;;;6255646;28;19940;-63
2023/08/22 15:27:33;;;;;;;;;;;;;;;;;;6257100;28;20159;-64
2023/08/22 15:30:33;;;;;;;12.87;7.87;;;;;;;;;;6256742;28;20443;-63
2023/08/22 15:33:34;;;;;;;;;;;;;;;;;;6257705;28;20476;-64
2023/08/22 15:36:34;;;;;;;10.57;7.40;;;;;;;;;;6254833;28;19929;-64
2023/08/22 15:39:35;;;;;;;;;;;;;;;;;;6255486;28;20470;-65
2023/08/22 15:42:36;;;;;;;10.40;7.83;;;;;;;;;;6257125;28;20492;-61
2023/08/22 15:45:37;;;;;;;;;;;;;;;;;;6254723;28;20486;-64
2023/08/22 15:48:37;;;;;;;12.97;8.13;;;;;;;;;;6257408;28;19921;-66
2023/08/22 15:51:38;;;;;;;;;;;;;;;;;;6263337;28;20068;-64
2023/08/22 15:54:38;;;;;;;12.70;8.03;;;;;;;;;;6254685;28;19920;-65
2023/08/22 15:57:39;;;;;;;;;;;;;;;;;;6262747;28;20064;-65
2023/08/22 16:00:42;;;;;;;11.67;7.97;;;;;;;;;;6261788;28;19921;-65
2023/08/22 16:03:42;;;;;;;9.73;8.13;;;;;;;;;;6264770;28;20627;-61
2023/08/22 16:06:43;;;;;;;;;;;;;;;;;;6265085;28;20041;-64
2023/08/22 16:09:44;;;;;;;11.93;8.27;;;;;;;;;;6263278;28;20047;-63
2023/08/22 16:12:44;;;;;;;;;;;;;;;;;;6266107;28;20045;-65
2023/08/22 16:15:48;;;;;;;12.32;9.07;;;;;;;;;;6259973;28;19925;-66
2023/08/22 16:18:48;;;;;;;16.63;9.50;;;;;;;;;;6249284;28;20041;-66
2023/08/22 16:21:49;;;;;;;;;;;;;;;;;;6262055;28;20448;-64
2023/08/22 16:24:49;;;;;;;19.63;10.30;;;;;;;;;;6264794;28;19921;-64
2023/08/22 16:27:50;;;;;;;15.80;9.75;;;;;;;;;;6265029;28;20041;-70
2023/08/22 16:30:52;;;;;;;;;;;;;;;;;;6263959;28;20053;-65
2023/08/22 16:33:56;;;;;;;13.30;9.00;;;;;;;;;;6253591;28;19924;-65
2023/08/22 16:36:56;;;;;;;13.48;8.90;;;;;;;;;;6256826;28;20048;-64
2023/08/22 16:39:57;;;;;;;;;;;;;;;;;;6264191;28;20140;-62
2023/08/22 16:42:57;;;;;;;10.23;8.87;;;;;;;;;;6264363;28;19927;-63
2023/08/22 16:45:58;;;;;;;12.60;8.57;;;;;;;;;;6262741;28;20187;-63
2023/08/22 16:48:59;;;;;;;;;;;;;;;;;;6269406;28;20443;-65
2023/08/22 16:51:59;;;;;;;10.07;8.25;;;;;;;;;;6268720;28;20306;-65
2023/08/22 16:55:00;;;;;;;;;;;;;;;;;;6269781;28;20056;-67
2023/08/22 16:58:01;;;;;;;14.25;10.25;;;;;;;;;;6263959;28;19936;-66
2023/08/22 17:01:01;;;;;;;13.25;10.18;;;;;;;;;;6260172;28;20056;-64
2023/08/22 17:04:02;;;;;;;15.13;10.60;;;;;;;;;;6262740;28;20135;-65
2023/08/22 17:07:03;;;;;;;14.27;9.82;;;;;;;;;;6266493;28;20041;-66
2023/08/22 17:10:07;;;;;;;14.10;10.38;;;;;;;;;;6266896;28;20488;-65
2023/08/22 17:13:07;;;;;;;16.83;10.00;;;;;;;;;;6261492;28;20048;-65
2023/08/22 17:16:10;;;;;;;;;;;;;;;;;;6260420;28;20198;-64
2023/08/22 17:19:12;;;;;;;11.77;9.50;;;;;;;;;;6261091;28;19920;-65
2023/08/22 17:22:12;;;;;;;13.45;9.70;;;;;;;;;;6265061;28;20063;-64
2023/08/22 17:25:13;;;;;;;12.18;9.93;;;;;;;;;;6262203;28;20556;-64
2023/08/22 17:28:14;;;;;;;15.07;10.45;;;;;;;;;;6262113;28;20475;-64
2023/08/22 17:31:15;;;;;;;15.30;10.63;;;;;;;;;;6258463;28;20044;-64
2023/08/22 17:34:15;;;;;;;16.20;10.52;;;;;;;;;;6264036;28;20054;-63
2023/08/22 17:37:16;;;;;;;15.25;9.25;;;;;;;;;;6263015;28;20063;-63
2023/08/22 17:40:17;;;;;;;12.07;9.27;;;;;;;;;;6262095;28;20053;-63
2023/08/22 17:43:17;;;;;;;12.68;9.57;;;;;;;;;;6255079;28;20064;-64
2023/08/22 17:46:19;;;;;;;14.95;10.52;;;;;;;;;;6266699;28;20075;-63
2023/08/22 17:49:19;;;;;;;;;;;;;;;;;;6261104;28;20056;-62
2023/08/22 17:52:20;;;;;;;14.33;10.03;;;;;;;;;;6264757;28;20303;-62
2023/08/22 17:55:20;;;;;;;16.77;10.57;;;;;;;;;;6254182;28;20052;-63
2023/08/22 17:58:22;;;;;;;18.67;10.15;;;;;;;;;;6262860;28;20075;-62
2023/08/22 18:01:22;;;;;;;20.33;10.35;;;;;;;;;;6262498;28;20057;-62
2023/08/22 18:04:23;;;;;;;19.08;10.43;;;;;;;;;;6259267;28;20089;-62